Bernard A — TCWN3 — position and weather

sailwx.info

Track history (hours):
 
Tides and Currents Weather Stations Pressure Air Temp Water Temp Dewpoint Dewpoint Depression Visibility Wind Speed Wind Dir Waves Ship Positions

Bernard A

Last reported at 2018-Feb-13 23:45 UTC. Time now 2018-Feb-19 04:02 UTC.
Position N 40°56' E 028°40'.

Length 184 m; draft 7.7 m.

Type: Ship (hazmat cat A). MMSI: 271040008.

Date/timePositionNaut miles runAvg speedWind from/ knotsBaromVisibWave heightAir tempDewpointWater temp
2018-Feb-13 23:45N 40°56' E 028°40'4 8.7
2018-Feb-13 23:17N 40°56' E 028°45'4 9.6
2018-Feb-13 22:52N 40°55' E 028°50'4 9.0
2018-Feb-13 22:29N 40°57' E 028°55'5 9.9
2018-Feb-13 22:00N 40°60' E 028°59'  
2018-Feb-09 18:00N 43°48' E 029°27'611.1
2018-Feb-09 17:30N 43°50' E 029°20'611.3
2018-Feb-09 17:00N 43°52' E 029°13'611.1
2018-Feb-09 16:30N 43°54' E 029°06'1111.3
2018-Feb-09 15:30N 43°58' E 028°51'1110.8
2018-Feb-09 14:30N 44°06' E 028°42'4 0.1
2018-Feb-08 07:30N 44°03' E 028°46'510.4
2018-Feb-08 07:00N 43°59' E 028°51'611.3
2018-Feb-08 06:30N 43°57' E 028°58'1211.6
2018-Feb-08 05:30N 43°52' E 029°13'611.6
2018-Feb-08 05:00N 43°49' E 029°19'611.8
2018-Feb-08 04:30N 43°46' E 029°26'5311.9
2018-Feb-08 00:01N 43°22' E 030°32'011.9
2018-Feb-08 00:00N 43°22' E 030°32'  
Track history (hours):
 
Tides and Currents Weather Stations Pressure Air Temp Water Temp Dewpoint Dewpoint Depression Visibility Wind Speed Wind Dir Waves Ship Positions

Bernard A

Last reported at 2018-Feb-13 23:45 UTC. Time now 2018-Feb-19 04:02 UTC.
Position N 40°56' E 028°40'.

Length 184 m; draft 7.7 m.

Type: Ship (hazmat cat A). MMSI: 271040008.

Date/timePositionNaut miles runAvg speedWind from/ knotsBaromVisibWave heightAir tempDewpointWater temp
2018-Feb-13 23:45N 40°56' E 028°40'4 8.7
2018-Feb-13 23:17N 40°56' E 028°45'4 9.6
2018-Feb-13 22:52N 40°55' E 028°50'4 9.0
2018-Feb-13 22:29N 40°57' E 028°55'5 9.9
2018-Feb-13 22:00N 40°60' E 028°59'  
2018-Feb-09 18:00N 43°48' E 029°27'611.1
2018-Feb-09 17:30N 43°50' E 029°20'611.3
2018-Feb-09 17:00N 43°52' E 029°13'611.1
2018-Feb-09 16:30N 43°54' E 029°06'1111.3
2018-Feb-09 15:30N 43°58' E 028°51'1110.8
2018-Feb-09 14:30N 44°06' E 028°42'4 0.1
2018-Feb-08 07:30N 44°03' E 028°46'510.4
2018-Feb-08 07:00N 43°59' E 028°51'611.3
2018-Feb-08 06:30N 43°57' E 028°58'1211.6
2018-Feb-08 05:30N 43°52' E 029°13'611.6
2018-Feb-08 05:00N 43°49' E 029°19'611.8
2018-Feb-08 04:30N 43°46' E 029°26'5311.9
2018-Feb-08 00:01N 43°22' E 030°32'011.9
2018-Feb-08 00:00N 43°22' E 030°32'  

Dump ship's entire track history